sensor_id;sensor_type;location;lat;lon;timestamp;P1;durP1;ratioP1;P2;durP2;ratioP2
16766;SDS011;8501;49.926;8.404;2022-10-30T00:02:14;28.70;;;20.00;;
16766;SDS011;8501;49.926;8.404;2022-10-30T00:04:40;30.90;;;20.30;;
16766;SDS011;8501;49.926;8.404;2022-10-30T00:07:05;31.47;;;20.87;;
16766;SDS011;8501;49.926;8.404;2022-10-30T00:09:31;29.13;;;19.30;;
16766;SDS011;8501;49.926;8.404;2022-10-30T00:11:56;31.60;;;20.00;;
16766;SDS011;8501;49.926;8.404;2022-10-30T00:14:22;30.47;;;19.90;;
16766;SDS011;8501;49.926;8.404;2022-10-30T00:16:47;29.50;;;19.30;;
16766;SDS011;8501;49.926;8.404;2022-10-30T00:19:13;28.53;;;19.73;;
16766;SDS011;8501;49.926;8.404;2022-10-30T00:21:38;32.87;;;19.37;;
16766;SDS011;8501;49.926;8.404;2022-10-30T00:24:05;32.63;;;19.83;;
16766;SDS011;8501;49.926;8.404;2022-10-30T00:26:31;31.30;;;19.63;;
16766;SDS011;8501;49.926;8.404;2022-10-30T00:28:57;31.13;;;19.80;;
16766;SDS011;8501;49.926;8.404;2022-10-30T00:31:22;30.13;;;18.80;;
16766;SDS011;8501;49.926;8.404;2022-10-30T00:33:51;27.30;;;17.50;;
16766;SDS011;8501;49.926;8.404;2022-10-30T00:36:18;26.33;;;17.10;;
16766;SDS011;8501;49.926;8.404;2022-10-30T00:38:44;26.53;;;16.87;;
16766;SDS011;8501;49.926;8.404;2022-10-30T00:41:27;25.33;;;16.07;;
16766;SDS011;8501;49.926;8.404;2022-10-30T00:43:53;24.53;;;16.17;;
16766;SDS011;8501;49.926;8.404;2022-10-30T00:46:34;27.03;;;16.13;;
16766;SDS011;8501;49.926;8.404;2022-10-30T00:49:10;27.60;;;16.37;;
16766;SDS011;8501;49.926;8.404;2022-10-30T00:51:40;25.90;;;15.93;;
16766;SDS011;8501;49.926;8.404;2022-10-30T00:54:09;21.67;;;16.23;;
16766;SDS011;8501;49.926;8.404;2022-10-30T00:56:35;26.67;;;16.17;;
16766;SDS011;8501;49.926;8.404;2022-10-30T00:59:03;27.07;;;16.70;;
16766;SDS011;8501;49.926;8.404;2022-10-30T01:01:34;25.03;;;17.07;;
16766;SDS011;8501;49.926;8.404;2022-10-30T01:04:02;48.10;;;28.67;;
16766;SDS011;8501;49.926;8.404;2022-10-30T01:06:34;72.67;;;41.70;;
16766;SDS011;8501;49.926;8.404;2022-10-30T01:09:03;72.40;;;40.07;;
16766;SDS011;8501;49.926;8.404;2022-10-30T01:11:29;52.90;;;31.90;;
16766;SDS011;8501;49.926;8.404;2022-10-30T01:13:56;39.53;;;24.17;;
16766;SDS011;8501;49.926;8.404;2022-10-30T01:22:05;28.97;;;19.67;;
16766;SDS011;8501;49.926;8.404;2022-10-30T01:36:42;29.97;;;20.37;;
16766;SDS011;8501;49.926;8.404;2022-10-30T01:41:50;33.47;;;19.27;;
16766;SDS011;8501;49.926;8.404;2022-10-30T01:44:17;29.90;;;18.77;;
16766;SDS011;8501;49.926;8.404;2022-10-30T01:46:57;29.17;;;19.03;;
16766;SDS011;8501;49.926;8.404;2022-10-30T01:52:12;29.00;;;18.70;;
16766;SDS011;8501;49.926;8.404;2022-10-30T01:58:39;25.70;;;16.43;;
16766;SDS011;8501;49.926;8.404;2022-10-30T02:00:47;22.73;;;16.33;;
16766;SDS011;8501;49.926;8.404;2022-10-30T02:03:16;24.40;;;15.83;;
16766;SDS011;8501;49.926;8.404;2022-10-30T02:05:44;23.47;;;16.57;;
16766;SDS011;8501;49.926;8.404;2022-10-30T02:08:12;26.77;;;16.87;;
16766;SDS011;8501;49.926;8.404;2022-10-30T02:10:38;22.97;;;16.00;;
16766;SDS011;8501;49.926;8.404;2022-10-30T02:13:05;22.53;;;15.60;;
16766;SDS011;8501;49.926;8.404;2022-10-30T02:15:30;21.90;;;16.13;;
16766;SDS011;8501;49.926;8.404;2022-10-30T02:17:56;20.53;;;15.43;;
16766;SDS011;8501;49.926;8.404;2022-10-30T02:20:22;18.70;;;14.63;;
16766;SDS011;8501;49.926;8.404;2022-10-30T02:22:48;21.67;;;16.33;;
16766;SDS011;8501;49.926;8.404;2022-10-30T02:25:14;22.23;;;15.57;;
16766;SDS011;8501;49.926;8.404;2022-10-30T02:27:40;19.80;;;16.30;;
16766;SDS011;8501;49.926;8.404;2022-10-30T02:30:05;20.93;;;15.83;;
16766;SDS011;8501;49.926;8.404;2022-10-30T02:32:32;31.33;;;20.93;;
16766;SDS011;8501;49.926;8.404;2022-10-30T02:34:57;41.60;;;27.47;;
16766;SDS011;8501;49.926;8.404;2022-10-30T02:37:23;32.57;;;22.67;;
16766;SDS011;8501;49.926;8.404;2022-10-30T02:39:49;32.63;;;20.93;;
16766;SDS011;8501;49.926;8.404;2022-10-30T02:42:15;32.73;;;21.70;;
16766;SDS011;8501;49.926;8.404;2022-10-30T02:44:41;31.00;;;21.03;;
16766;SDS011;8501;49.926;8.404;2022-10-30T02:47:06;27.67;;;20.20;;
16766;SDS011;8501;49.926;8.404;2022-10-30T02:49:32;33.50;;;20.50;;
16766;SDS011;8501;49.926;8.404;2022-10-30T02:51:57;29.13;;;19.33;;
16766;SDS011;8501;49.926;8.404;2022-10-30T02:54:23;32.53;;;19.27;;
16766;SDS011;8501;49.926;8.404;2022-10-30T02:56:49;32.83;;;19.30;;
16766;SDS011;8501;49.926;8.404;2022-10-30T02:59:15;30.67;;;18.50;;
16766;SDS011;8501;49.926;8.404;2022-10-30T03:01:40;30.17;;;19.10;;
16766;SDS011;8501;49.926;8.404;2022-10-30T03:04:06;35.47;;;20.57;;
16766;SDS011;8501;49.926;8.404;2022-10-30T03:06:31;38.27;;;21.20;;
16766;SDS011;8501;49.926;8.404;2022-10-30T03:08:57;36.47;;;20.33;;
16766;SDS011;8501;49.926;8.404;2022-10-30T03:11:22;37.00;;;20.70;;
16766;SDS011;8501;49.926;8.404;2022-10-30T03:13:48;35.53;;;21.07;;
16766;SDS011;8501;49.926;8.404;2022-10-30T03:16:15;33.40;;;19.67;;
16766;SDS011;8501;49.926;8.404;2022-10-30T03:18:43;33.30;;;20.73;;
16766;SDS011;8501;49.926;8.404;2022-10-30T03:21:10;27.03;;;18.60;;
16766;SDS011;8501;49.926;8.404;2022-10-30T03:23:38;35.17;;;20.43;;
16766;SDS011;8501;49.926;8.404;2022-10-30T03:26:04;28.10;;;19.10;;
16766;SDS011;8501;49.926;8.404;2022-10-30T03:28:30;28.47;;;18.47;;
16766;SDS011;8501;49.926;8.404;2022-10-30T03:30:57;26.53;;;18.17;;
16766;SDS011;8501;49.926;8.404;2022-10-30T03:33:24;28.40;;;19.10;;
16766;SDS011;8501;49.926;8.404;2022-10-30T03:35:49;27.17;;;18.10;;
16766;SDS011;8501;49.926;8.404;2022-10-30T03:38:15;28.83;;;18.20;;
16766;SDS011;8501;49.926;8.404;2022-10-30T03:40:40;29.17;;;18.43;;
16766;SDS011;8501;49.926;8.404;2022-10-30T03:43:06;29.33;;;16.97;;
16766;SDS011;8501;49.926;8.404;2022-10-30T03:45:32;29.70;;;17.83;;
16766;SDS011;8501;49.926;8.404;2022-10-30T03:48:01;28.70;;;17.97;;
16766;SDS011;8501;49.926;8.404;2022-10-30T03:50:28;28.47;;;18.53;;
16766;SDS011;8501;49.926;8.404;2022-10-30T03:52:54;28.60;;;17.60;;
16766;SDS011;8501;49.926;8.404;2022-10-30T03:55:21;32.17;;;19.40;;
16766;SDS011;8501;49.926;8.404;2022-10-30T03:57:47;33.10;;;18.60;;
16766;SDS011;8501;49.926;8.404;2022-10-30T04:00:13;28.37;;;18.03;;
16766;SDS011;8501;49.926;8.404;2022-10-30T04:02:42;25.20;;;17.87;;
16766;SDS011;8501;49.926;8.404;2022-10-30T04:05:12;26.70;;;17.37;;
16766;SDS011;8501;49.926;8.404;2022-10-30T04:07:39;27.87;;;17.93;;
16766;SDS011;8501;49.926;8.404;2022-10-30T04:10:04;31.07;;;18.40;;
16766;SDS011;8501;49.926;8.404;2022-10-30T04:12:30;31.23;;;18.83;;
16766;SDS011;8501;49.926;8.404;2022-10-30T04:14:56;30.97;;;18.47;;
16766;SDS011;8501;49.926;8.404;2022-10-30T04:17:21;25.97;;;17.53;;
16766;SDS011;8501;49.926;8.404;2022-10-30T04:19:47;23.23;;;16.50;;
16766;SDS011;8501;49.926;8.404;2022-10-30T04:22:12;25.70;;;15.83;;
16766;SDS011;8501;49.926;8.404;2022-10-30T04:24:38;26.37;;;16.37;;
16766;SDS011;8501;49.926;8.404;2022-10-30T04:27:03;23.20;;;15.47;;
16766;SDS011;8501;49.926;8.404;2022-10-30T04:29:29;21.90;;;15.37;;
16766;SDS011;8501;49.926;8.404;2022-10-30T04:31:55;21.53;;;14.07;;
16766;SDS011;8501;49.926;8.404;2022-10-30T04:34:20;21.77;;;14.50;;
16766;SDS011;8501;49.926;8.404;2022-10-30T04:36:46;24.53;;;15.27;;
16766;SDS011;8501;49.926;8.404;2022-10-30T04:39:11;27.07;;;15.20;;
16766;SDS011;8501;49.926;8.404;2022-10-30T04:41:37;22.97;;;15.17;;
16766;SDS011;8501;49.926;8.404;2022-10-30T04:44:03;24.00;;;16.03;;
16766;SDS011;8501;49.926;8.404;2022-10-30T04:46:28;25.50;;;17.40;;
16766;SDS011;8501;49.926;8.404;2022-10-30T04:48:55;27.63;;;17.77;;
16766;SDS011;8501;49.926;8.404;2022-10-30T04:51:21;24.67;;;17.77;;
16766;SDS011;8501;49.926;8.404;2022-10-30T04:53:47;23.43;;;16.83;;
16766;SDS011;8501;49.926;8.404;2022-10-30T04:56:13;22.73;;;15.70;;
16766;SDS011;8501;49.926;8.404;2022-10-30T04:58:39;20.03;;;14.67;;
16766;SDS011;8501;49.926;8.404;2022-10-30T05:01:05;20.93;;;14.50;;
16766;SDS011;8501;49.926;8.404;2022-10-30T05:03:31;22.30;;;15.33;;
16766;SDS011;8501;49.926;8.404;2022-10-30T05:06:01;23.43;;;16.33;;
16766;SDS011;8501;49.926;8.404;2022-10-30T05:08:31;26.27;;;17.13;;
16766;SDS011;8501;49.926;8.404;2022-10-30T05:10:57;27.37;;;18.70;;
16766;SDS011;8501;49.926;8.404;2022-10-30T05:13:23;29.97;;;18.53;;
16766;SDS011;8501;49.926;8.404;2022-10-30T05:15:48;27.63;;;18.07;;
16766;SDS011;8501;49.926;8.404;2022-10-30T05:18:14;26.80;;;18.30;;
16766;SDS011;8501;49.926;8.404;2022-10-30T05:20:39;27.67;;;17.83;;
16766;SDS011;8501;49.926;8.404;2022-10-30T05:23:05;24.80;;;16.80;;
16766;SDS011;8501;49.926;8.404;2022-10-30T05:25:30;26.70;;;17.23;;
16766;SDS011;8501;49.926;8.404;2022-10-30T05:27:57;27.13;;;17.03;;
16766;SDS011;8501;49.926;8.404;2022-10-30T05:30:30;25.77;;;17.87;;
16766;SDS011;8501;49.926;8.404;2022-10-30T05:33:00;24.37;;;17.37;;
16766;SDS011;8501;49.926;8.404;2022-10-30T05:35:27;24.80;;;17.17;;
16766;SDS011;8501;49.926;8.404;2022-10-30T05:37:53;23.10;;;16.13;;
16766;SDS011;8501;49.926;8.404;2022-10-30T05:40:18;23.70;;;16.27;;
16766;SDS011;8501;49.926;8.404;2022-10-30T05:42:45;24.83;;;15.63;;
16766;SDS011;8501;49.926;8.404;2022-10-30T05:45:11;24.53;;;16.30;;
16766;SDS011;8501;49.926;8.404;2022-10-30T05:47:36;25.50;;;15.93;;
16766;SDS011;8501;49.926;8.404;2022-10-30T05:50:02;29.23;;;16.60;;
16766;SDS011;8501;49.926;8.404;2022-10-30T05:52:29;24.57;;;16.13;;
16766;SDS011;8501;49.926;8.404;2022-10-30T05:54:54;25.47;;;16.57;;
16766;SDS011;8501;49.926;8.404;2022-10-30T05:57:20;20.17;;;15.50;;
16766;SDS011;8501;49.926;8.404;2022-10-30T05:59:45;22.73;;;16.00;;
16766;SDS011;8501;49.926;8.404;2022-10-30T06:02:11;23.50;;;15.77;;
16766;SDS011;8501;49.926;8.404;2022-10-30T06:04:36;26.67;;;15.93;;
16766;SDS011;8501;49.926;8.404;2022-10-30T06:07:02;24.10;;;15.97;;
16766;SDS011;8501;49.926;8.404;2022-10-30T06:09:27;23.87;;;15.87;;
16766;SDS011;8501;49.926;8.404;2022-10-30T06:11:53;29.50;;;16.37;;
16766;SDS011;8501;49.926;8.404;2022-10-30T06:14:18;31.07;;;16.57;;
16766;SDS011;8501;49.926;8.404;2022-10-30T06:16:44;23.57;;;15.60;;
16766;SDS011;8501;49.926;8.404;2022-10-30T06:19:09;27.83;;;17.50;;
16766;SDS011;8501;49.926;8.404;2022-10-30T06:21:35;29.23;;;17.20;;
16766;SDS011;8501;49.926;8.404;2022-10-30T06:24:00;27.97;;;16.67;;
16766;SDS011;8501;49.926;8.404;2022-10-30T06:26:26;26.80;;;17.00;;
16766;SDS011;8501;49.926;8.404;2022-10-30T06:28:51;31.70;;;17.37;;
16766;SDS011;8501;49.926;8.404;2022-10-30T06:31:17;30.73;;;17.47;;
16766;SDS011;8501;49.926;8.404;2022-10-30T06:33:42;29.87;;;18.23;;
16766;SDS011;8501;49.926;8.404;2022-10-30T06:36:08;26.07;;;17.87;;
16766;SDS011;8501;49.926;8.404;2022-10-30T06:38:33;26.90;;;18.33;;
16766;SDS011;8501;49.926;8.404;2022-10-30T06:40:59;26.80;;;17.67;;
16766;SDS011;8501;49.926;8.404;2022-10-30T06:43:24;27.47;;;18.20;;
16766;SDS011;8501;49.926;8.404;2022-10-30T06:45:50;28.23;;;18.20;;
16766;SDS011;8501;49.926;8.404;2022-10-30T06:48:15;30.93;;;18.60;;
16766;SDS011;8501;49.926;8.404;2022-10-30T06:50:42;28.97;;;19.70;;
16766;SDS011;8501;49.926;8.404;2022-10-30T06:53:08;30.23;;;18.80;;
16766;SDS011;8501;49.926;8.404;2022-10-30T06:55:34;34.77;;;19.03;;
16766;SDS011;8501;49.926;8.404;2022-10-30T06:57:59;29.83;;;18.60;;
16766;SDS011;8501;49.926;8.404;2022-10-30T07:00:25;28.60;;;19.17;;
16766;SDS011;8501;49.926;8.404;2022-10-30T07:02:54;26.87;;;18.50;;
16766;SDS011;8501;49.926;8.404;2022-10-30T07:05:21;27.80;;;18.23;;
16766;SDS011;8501;49.926;8.404;2022-10-30T07:07:46;27.43;;;18.37;;
16766;SDS011;8501;49.926;8.404;2022-10-30T07:10:12;25.60;;;18.40;;
16766;SDS011;8501;49.926;8.404;2022-10-30T07:12:37;28.37;;;19.10;;
16766;SDS011;8501;49.926;8.404;2022-10-30T07:15:03;25.43;;;18.93;;
16766;SDS011;8501;49.926;8.404;2022-10-30T07:17:29;32.80;;;19.60;;
16766;SDS011;8501;49.926;8.404;2022-10-30T07:19:54;31.53;;;19.43;;
16766;SDS011;8501;49.926;8.404;2022-10-30T07:22:20;32.33;;;19.37;;
16766;SDS011;8501;49.926;8.404;2022-10-30T07:24:45;31.40;;;19.13;;
16766;SDS011;8501;49.926;8.404;2022-10-30T07:27:11;35.80;;;19.70;;
16766;SDS011;8501;49.926;8.404;2022-10-30T07:29:36;28.07;;;19.40;;
16766;SDS011;8501;49.926;8.404;2022-10-30T07:32:02;29.50;;;20.33;;
16766;SDS011;8501;49.926;8.404;2022-10-30T07:34:27;34.70;;;23.07;;
16766;SDS011;8501;49.926;8.404;2022-10-30T07:36:53;34.60;;;21.60;;
16766;SDS011;8501;49.926;8.404;2022-10-30T07:39:18;29.47;;;21.23;;
16766;SDS011;8501;49.926;8.404;2022-10-30T07:41:44;31.60;;;20.43;;
16766;SDS011;8501;49.926;8.404;2022-10-30T07:44:09;28.43;;;19.37;;
16766;SDS011;8501;49.926;8.404;2022-10-30T07:46:35;28.13;;;19.83;;
16766;SDS011;8501;49.926;8.404;2022-10-30T07:49:00;30.83;;;19.93;;
16766;SDS011;8501;49.926;8.404;2022-10-30T07:51:26;31.83;;;20.47;;
16766;SDS011;8501;49.926;8.404;2022-10-30T07:53:51;29.70;;;20.43;;
16766;SDS011;8501;49.926;8.404;2022-10-30T07:56:17;30.10;;;19.00;;
16766;SDS011;8501;49.926;8.404;2022-10-30T07:58:42;29.33;;;19.40;;
16766;SDS011;8501;49.926;8.404;2022-10-30T08:01:08;28.20;;;19.30;;
16766;SDS011;8501;49.926;8.404;2022-10-30T08:03:33;29.57;;;19.17;;
16766;SDS011;8501;49.926;8.404;2022-10-30T08:05:59;28.90;;;20.47;;
16766;SDS011;8501;49.926;8.404;2022-10-30T08:08:24;37.37;;;20.70;;
16766;SDS011;8501;49.926;8.404;2022-10-30T08:10:50;31.57;;;21.13;;
16766;SDS011;8501;49.926;8.404;2022-10-30T08:13:15;36.47;;;23.30;;
16766;SDS011;8501;49.926;8.404;2022-10-30T08:15:42;33.40;;;22.30;;
16766;SDS011;8501;49.926;8.404;2022-10-30T08:18:07;29.67;;;20.87;;
16766;SDS011;8501;49.926;8.404;2022-10-30T08:20:33;28.10;;;20.97;;
16766;SDS011;8501;49.926;8.404;2022-10-30T08:22:58;31.23;;;22.07;;
16766;SDS011;8501;49.926;8.404;2022-10-30T08:25:25;33.70;;;22.10;;
16766;SDS011;8501;49.926;8.404;2022-10-30T08:27:54;31.30;;;22.53;;
16766;SDS011;8501;49.926;8.404;2022-10-30T08:30:19;35.17;;;24.23;;
16766;SDS011;8501;49.926;8.404;2022-10-30T08:32:46;36.67;;;25.03;;
16766;SDS011;8501;49.926;8.404;2022-10-30T08:35:11;38.90;;;26.47;;
16766;SDS011;8501;49.926;8.404;2022-10-30T08:37:37;37.50;;;25.27;;
16766;SDS011;8501;49.926;8.404;2022-10-30T08:40:02;38.07;;;25.33;;
16766;SDS011;8501;49.926;8.404;2022-10-30T08:42:28;36.17;;;25.33;;
16766;SDS011;8501;49.926;8.404;2022-10-30T08:44:54;35.83;;;24.93;;
16766;SDS011;8501;49.926;8.404;2022-10-30T08:47:19;37.87;;;24.30;;
16766;SDS011;8501;49.926;8.404;2022-10-30T08:49:45;36.90;;;24.70;;
16766;SDS011;8501;49.926;8.404;2022-10-30T08:52:10;35.53;;;23.80;;
16766;SDS011;8501;49.926;8.404;2022-10-30T08:54:36;35.30;;;24.80;;
16766;SDS011;8501;49.926;8.404;2022-10-30T08:57:01;36.90;;;25.30;;
16766;SDS011;8501;49.926;8.404;2022-10-30T08:59:27;35.83;;;24.40;;
16766;SDS011;8501;49.926;8.404;2022-10-30T09:01:52;38.03;;;24.90;;
16766;SDS011;8501;49.926;8.404;2022-10-30T09:04:18;37.90;;;25.40;;
16766;SDS011;8501;49.926;8.404;2022-10-30T09:06:43;37.93;;;25.63;;
16766;SDS011;8501;49.926;8.404;2022-10-30T09:09:09;40.83;;;26.83;;
16766;SDS011;8501;49.926;8.404;2022-10-30T09:11:35;42.77;;;27.30;;
16766;SDS011;8501;49.926;8.404;2022-10-30T09:14:01;40.67;;;28.43;;
16766;SDS011;8501;49.926;8.404;2022-10-30T09:16:27;39.07;;;27.30;;
16766;SDS011;8501;49.926;8.404;2022-10-30T09:18:52;38.80;;;26.87;;
16766;SDS011;8501;49.926;8.404;2022-10-30T09:21:18;43.47;;;28.63;;
16766;SDS011;8501;49.926;8.404;2022-10-30T09:23:43;42.97;;;27.47;;
16766;SDS011;8501;49.926;8.404;2022-10-30T09:26:09;44.10;;;29.10;;
16766;SDS011;8501;49.926;8.404;2022-10-30T09:28:35;44.23;;;28.37;;
16766;SDS011;8501;49.926;8.404;2022-10-30T09:31:02;45.70;;;28.57;;
16766;SDS011;8501;49.926;8.404;2022-10-30T09:33:27;42.73;;;27.90;;
16766;SDS011;8501;49.926;8.404;2022-10-30T09:35:53;39.80;;;25.90;;
16766;SDS011;8501;49.926;8.404;2022-10-30T09:38:18;36.77;;;25.80;;
16766;SDS011;8501;49.926;8.404;2022-10-30T09:43:51;34.13;;;25.27;;
16766;SDS011;8501;49.926;8.404;2022-10-30T09:46:32;33.43;;;24.10;;
16766;SDS011;8501;49.926;8.404;2022-10-30T09:51:58;30.73;;;23.57;;
16766;SDS011;8501;49.926;8.404;2022-10-30T09:55:04;32.50;;;22.07;;
16766;SDS011;8501;49.926;8.404;2022-10-30T10:07:01;27.30;;;20.35;;
16766;SDS011;8501;49.926;8.404;2022-10-30T10:09:31;29.90;;;20.05;;
16766;SDS011;8501;49.926;8.404;2022-10-30T10:12:01;27.52;;;20.25;;
16766;SDS011;8501;49.926;8.404;2022-10-30T10:14:34;27.13;;;20.47;;
16766;SDS011;8501;49.926;8.404;2022-10-30T10:17:04;26.57;;;21.67;;
16766;SDS011;8501;49.926;8.404;2022-10-30T10:22:18;27.65;;;20.60;;
16766;SDS011;8501;49.926;8.404;2022-10-30T10:24:53;29.08;;;20.70;;
16766;SDS011;8501;49.926;8.404;2022-10-30T10:44:24;28.25;;;19.65;;
16766;SDS011;8501;49.926;8.404;2022-10-30T10:50:02;27.38;;;19.50;;
16766;SDS011;8501;49.926;8.404;2022-10-30T10:52:59;28.85;;;19.83;;
16766;SDS011;8501;49.926;8.404;2022-10-30T10:55:45;30.98;;;19.48;;
16766;SDS011;8501;49.926;8.404;2022-10-30T10:58:26;25.48;;;19.30;;
16766;SDS011;8501;49.926;8.404;2022-10-30T11:00:57;25.77;;;19.35;;
16766;SDS011;8501;49.926;8.404;2022-10-30T11:03:44;25.92;;;18.60;;
16766;SDS011;8501;49.926;8.404;2022-10-30T11:06:19;26.92;;;18.45;;
16766;SDS011;8501;49.926;8.404;2022-10-30T11:08:49;26.63;;;18.30;;
16766;SDS011;8501;49.926;8.404;2022-10-30T11:11:17;25.30;;;18.50;;
16766;SDS011;8501;49.926;8.404;2022-10-30T11:13:43;25.33;;;17.33;;
16766;SDS011;8501;49.926;8.404;2022-10-30T11:18:59;26.73;;;17.65;;
16766;SDS011;8501;49.926;8.404;2022-10-30T11:21:28;27.88;;;17.70;;
16766;SDS011;8501;49.926;8.404;2022-10-30T11:23:57;26.42;;;17.88;;
16766;SDS011;8501;49.926;8.404;2022-10-30T11:29:11;25.30;;;16.83;;
16766;SDS011;8501;49.926;8.404;2022-10-30T11:31:43;24.08;;;17.67;;
16766;SDS011;8501;49.926;8.404;2022-10-30T11:36:41;28.85;;;17.83;;
16766;SDS011;8501;49.926;8.404;2022-10-30T11:39:10;24.92;;;17.92;;
16766;SDS011;8501;49.926;8.404;2022-10-30T11:41:42;26.75;;;17.38;;
16766;SDS011;8501;49.926;8.404;2022-10-30T11:44:14;27.25;;;16.70;;
16766;SDS011;8501;49.926;8.404;2022-10-30T11:46:40;27.10;;;18.00;;
16766;SDS011;8501;49.926;8.404;2022-10-30T11:49:05;28.73;;;17.75;;
16766;SDS011;8501;49.926;8.404;2022-10-30T11:51:47;25.08;;;17.90;;
16766;SDS011;8501;49.926;8.404;2022-10-30T11:54:15;26.42;;;17.33;;
16766;SDS011;8501;49.926;8.404;2022-10-30T11:56:45;25.38;;;17.02;;
16766;SDS011;8501;49.926;8.404;2022-10-30T11:59:14;25.17;;;15.93;;
16766;SDS011;8501;49.926;8.404;2022-10-30T12:01:56;23.20;;;16.35;;
16766;SDS011;8501;49.926;8.404;2022-10-30T12:04:25;25.88;;;16.13;;
16766;SDS011;8501;49.926;8.404;2022-10-30T12:09:57;27.10;;;15.63;;
16766;SDS011;8501;49.926;8.404;2022-10-30T12:15:09;24.27;;;15.43;;
16766;SDS011;8501;49.926;8.404;2022-10-30T12:17:38;26.80;;;14.85;;
16766;SDS011;8501;49.926;8.404;2022-10-30T12:20:05;25.08;;;15.02;;
16766;SDS011;8501;49.926;8.404;2022-10-30T12:22:33;23.15;;;15.05;;
16766;SDS011;8501;49.926;8.404;2022-10-30T12:25:00;24.58;;;14.48;;
16766;SDS011;8501;49.926;8.404;2022-10-30T12:27:29;23.50;;;13.70;;
16766;SDS011;8501;49.926;8.404;2022-10-30T12:32:56;26.50;;;15.02;;
16766;SDS011;8501;49.926;8.404;2022-10-30T12:37:55;27.75;;;14.32;;
16766;SDS011;8501;49.926;8.404;2022-10-30T12:40:25;21.27;;;12.73;;
16766;SDS011;8501;49.926;8.404;2022-10-30T12:42:59;25.77;;;13.52;;
16766;SDS011;8501;49.926;8.404;2022-10-30T12:49:00;22.27;;;12.60;;
16766;SDS011;8501;49.926;8.404;2022-10-30T12:57:19;21.67;;;12.23;;
16766;SDS011;8501;49.926;8.404;2022-10-30T13:02:58;23.98;;;12.95;;
16766;SDS011;8501;49.926;8.404;2022-10-30T13:08:31;20.73;;;11.65;;
16766;SDS011;8501;49.926;8.404;2022-10-30T13:13:42;18.90;;;10.30;;
16766;SDS011;8501;49.926;8.404;2022-10-30T13:16:13;16.80;;;9.55;;
16766;SDS011;8501;49.926;8.404;2022-10-30T13:18:42;31.90;;;20.15;;
16766;SDS011;8501;49.926;8.404;2022-10-30T13:26:23;19.30;;;8.50;;
16766;SDS011;8501;49.926;8.404;2022-10-30T13:29:04;18.45;;;8.48;;
16766;SDS011;8501;49.926;8.404;2022-10-30T13:37:13;15.80;;;8.52;;
16766;SDS011;8501;49.926;8.404;2022-10-30T13:40:09;16.63;;;8.15;;
16766;SDS011;8501;49.926;8.404;2022-10-30T13:45:22;16.33;;;9.45;;
16766;SDS011;8501;49.926;8.404;2022-10-30T13:48:15;18.00;;;8.63;;
16766;SDS011;8501;49.926;8.404;2022-10-30T13:53:39;18.13;;;9.00;;
16766;SDS011;8501;49.926;8.404;2022-10-30T13:56:09;15.55;;;8.75;;
16766;SDS011;8501;49.926;8.404;2022-10-30T13:58:55;15.48;;;8.18;;
16766;SDS011;8501;49.926;8.404;2022-10-30T14:04:14;15.85;;;8.35;;
16766;SDS011;8501;49.926;8.404;2022-10-30T14:10:06;15.45;;;7.80;;
16766;SDS011;8501;49.926;8.404;2022-10-30T14:20:39;16.63;;;7.97;;
16766;SDS011;8501;49.926;8.404;2022-10-30T14:25:44;14.90;;;8.18;;
16766;SDS011;8501;49.926;8.404;2022-10-30T14:28:34;16.60;;;8.38;;
16766;SDS011;8501;49.926;8.404;2022-10-30T14:31:02;16.83;;;8.15;;
16766;SDS011;8501;49.926;8.404;2022-10-30T14:36:23;20.63;;;12.10;;
16766;SDS011;8501;49.926;8.404;2022-10-30T14:38:51;43.55;;;27.50;;
16766;SDS011;8501;49.926;8.404;2022-10-30T14:41:34;44.45;;;27.00;;
16766;SDS011;8501;49.926;8.404;2022-10-30T14:47:05;21.30;;;12.10;;
16766;SDS011;8501;49.926;8.404;2022-10-30T14:49:56;18.98;;;9.70;;
16766;SDS011;8501;49.926;8.404;2022-10-30T14:55:29;21.15;;;11.90;;
16766;SDS011;8501;49.926;8.404;2022-10-30T15:05:27;20.70;;;12.20;;
16766;SDS011;8501;49.926;8.404;2022-10-30T15:08:13;18.85;;;12.10;;
16766;SDS011;8501;49.926;8.404;2022-10-30T15:14:06;23.27;;;15.05;;
16766;SDS011;8501;49.926;8.404;2022-10-30T15:16:37;22.98;;;13.85;;
16766;SDS011;8501;49.926;8.404;2022-10-30T15:19:05;19.38;;;11.57;;
16766;SDS011;8501;49.926;8.404;2022-10-30T15:21:34;16.67;;;9.77;;
16766;SDS011;8501;49.926;8.404;2022-10-30T15:24:17;15.15;;;9.23;;
16766;SDS011;8501;49.926;8.404;2022-10-30T15:26:49;16.00;;;9.35;;
16766;SDS011;8501;49.926;8.404;2022-10-30T15:29:17;20.33;;;9.48;;
16766;SDS011;8501;49.926;8.404;2022-10-30T15:31:59;19.10;;;9.68;;
16766;SDS011;8501;49.926;8.404;2022-10-30T15:34:30;16.90;;;9.35;;
16766;SDS011;8501;49.926;8.404;2022-10-30T15:36:57;14.35;;;9.07;;
16766;SDS011;8501;49.926;8.404;2022-10-30T15:39:23;20.48;;;9.75;;
16766;SDS011;8501;49.926;8.404;2022-10-30T15:41:54;19.27;;;10.07;;
16766;SDS011;8501;49.926;8.404;2022-10-30T15:44:34;15.23;;;10.30;;
16766;SDS011;8501;49.926;8.404;2022-10-30T15:47:03;22.67;;;14.80;;
16766;SDS011;8501;49.926;8.404;2022-10-30T15:49:37;23.58;;;15.10;;
16766;SDS011;8501;49.926;8.404;2022-10-30T15:52:25;24.05;;;14.65;;
16766;SDS011;8501;49.926;8.404;2022-10-30T15:54:57;18.15;;;11.57;;
16766;SDS011;8501;49.926;8.404;2022-10-30T15:57:37;20.65;;;12.75;;
16766;SDS011;8501;49.926;8.404;2022-10-30T16:00:30;26.40;;;14.82;;
16766;SDS011;8501;49.926;8.404;2022-10-30T16:05:27;24.13;;;14.20;;
16766;SDS011;8501;49.926;8.404;2022-10-30T16:07:55;25.25;;;13.18;;
16766;SDS011;8501;49.926;8.404;2022-10-30T16:10:27;19.88;;;12.05;;
16766;SDS011;8501;49.926;8.404;2022-10-30T16:12:58;23.45;;;11.80;;
16766;SDS011;8501;49.926;8.404;2022-10-30T16:15:28;19.35;;;12.43;;
16766;SDS011;8501;49.926;8.404;2022-10-30T16:20:42;24.15;;;12.40;;
16766;SDS011;8501;49.926;8.404;2022-10-30T16:23:11;36.97;;;19.83;;
16766;SDS011;8501;49.926;8.404;2022-10-30T16:25:37;61.90;;;32.63;;
16766;SDS011;8501;49.926;8.404;2022-10-30T16:28:04;36.15;;;20.83;;
16766;SDS011;8501;49.926;8.404;2022-10-30T16:30:31;29.85;;;18.35;;
16766;SDS011;8501;49.926;8.404;2022-10-30T16:32:57;25.38;;;14.90;;
16766;SDS011;8501;49.926;8.404;2022-10-30T16:35:24;27.13;;;21.13;;
16766;SDS011;8501;49.926;8.404;2022-10-30T16:37:50;28.20;;;21.95;;
16766;SDS011;8501;49.926;8.404;2022-10-30T16:42:55;21.75;;;15.40;;
16766;SDS011;8501;49.926;8.404;2022-10-30T16:48:10;24.60;;;13.80;;
16766;SDS011;8501;49.926;8.404;2022-10-30T16:50:41;22.40;;;13.40;;
16766;SDS011;8501;49.926;8.404;2022-10-30T16:53:10;20.48;;;13.15;;
16766;SDS011;8501;49.926;8.404;2022-10-30T16:55:42;22.80;;;13.38;;
16766;SDS011;8501;49.926;8.404;2022-10-30T16:58:08;21.58;;;12.70;;
16766;SDS011;8501;49.926;8.404;2022-10-30T17:00:36;21.65;;;11.75;;
16766;SDS011;8501;49.926;8.404;2022-10-30T17:03:05;19.02;;;11.15;;
16766;SDS011;8501;49.926;8.404;2022-10-30T17:05:33;18.85;;;11.40;;
16766;SDS011;8501;49.926;8.404;2022-10-30T17:10:35;24.33;;;12.20;;
16766;SDS011;8501;49.926;8.404;2022-10-30T17:15:57;22.95;;;14.15;;
16766;SDS011;8501;49.926;8.404;2022-10-30T17:18:27;29.10;;;23.90;;
16766;SDS011;8501;49.926;8.404;2022-10-30T17:21:14;25.67;;;18.10;;
16766;SDS011;8501;49.926;8.404;2022-10-30T17:23:44;23.05;;;16.35;;
16766;SDS011;8501;49.926;8.404;2022-10-30T17:26:11;21.50;;;15.40;;
16766;SDS011;8501;49.926;8.404;2022-10-30T17:28:38;23.10;;;14.25;;
16766;SDS011;8501;49.926;8.404;2022-10-30T17:33:41;28.30;;;17.45;;
16766;SDS011;8501;49.926;8.404;2022-10-30T17:36:08;35.10;;;19.13;;
16766;SDS011;8501;49.926;8.404;2022-10-30T17:38:33;63.05;;;37.47;;